Terminal Aerodrome Forecast
Issued by NWS Austin/San Antonio, TX

Home | Current Version | Previous Version | Text Only | Print | Product List | Glossary On
Versions: 1 2 3 4 5 6 7 8 9 10 11 12 13 14 15 16 17 18 19 20 21 22 23 24 25 26 27 28
247
FTUS44 KEWX 291739
TAFAUS
TAF
KAUS 291739Z 2918/3024 17016KT 3SM -RA BR BKN014 OVC023
      TEMPO 2921/2923 17015G30KT 3SM -TSRA BKN025CB
     FM300100 19005KT 6SM BR VCSH SCT030
     FM300600 VRB03KT 5SM BR BKN009
     FM301500 35004KT P6SM BKN020=

USA.gov is the U.S. government's official web portal to all federal, state and local government web resources and services.